createdAt,value
2022-09-28T00:03:48.549Z,1.88
2022-09-28T00:08:50.501Z,1.50
2022-09-28T00:13:56.611Z,1.60
2022-09-28T00:18:59.161Z,1.30
2022-09-28T00:24:19.949Z,1.60
2022-09-28T00:29:27.269Z,1.50
2022-09-28T00:34:34.779Z,1.52
2022-09-28T00:39:38.506Z,1.48
2022-09-28T00:44:48.071Z,1.77
2022-09-28T00:49:56.393Z,1.75
2022-09-28T00:55:01.943Z,1.58
2022-09-28T01:05:14.914Z,1.92
2022-09-28T01:10:17.362Z,1.55
2022-09-28T01:15:21.985Z,1.70
2022-09-28T01:20:31.174Z,1.90
2022-09-28T01:25:50.946Z,1.60
2022-09-28T01:31:03.529Z,1.40
2022-09-28T01:36:26.755Z,1.70
2022-09-28T01:41:36.639Z,1.65
2022-09-28T01:46:46.483Z,1.20
2022-09-28T01:51:59.979Z,1.50
2022-09-28T01:57:14.059Z,1.95
2022-09-28T02:02:25.208Z,1.65
2022-09-28T02:07:42.543Z,1.73
2022-09-28T02:12:52.417Z,1.60
2022-09-28T02:17:54.950Z,1.65
2022-09-28T02:23:02.233Z,1.63
2022-09-28T02:28:16.134Z,2.03
2022-09-28T02:33:41.074Z,1.52
2022-09-28T02:38:43.635Z,1.70
2022-09-28T02:44:07.232Z,1.77
2022-09-28T02:49:22.315Z,1.40
2022-09-28T02:54:33.082Z,1.65
2022-09-28T03:05:30.991Z,1.67
2022-09-28T03:11:11.869Z,1.63
2022-09-28T03:16:18.693Z,2.17
2022-09-28T03:21:34.936Z,1.92
2022-09-28T03:26:57.394Z,1.30
2022-09-28T03:32:17.433Z,1.30
2022-09-28T03:37:27.356Z,1.50
2022-09-28T03:48:04.574Z,0.95
2022-09-28T03:53:13.020Z,1.40
2022-09-28T03:58:22.297Z,1.45
2022-09-28T04:03:31.297Z,1.92
2022-09-28T04:08:35.572Z,1.65
2022-09-28T04:13:40.951Z,1.40
2022-09-28T04:18:52.914Z,1.20
2022-09-28T04:24:49.442Z,1.40
2022-09-28T04:30:00.874Z,1.73
2022-09-28T04:35:19.932Z,1.40
2022-09-28T04:40:29.492Z,1.10
2022-09-28T04:45:35.994Z,1.45
2022-09-28T04:50:58.995Z,1.30
2022-09-28T04:56:13.897Z,1.42
2022-09-28T05:01:29.135Z,1.60
2022-09-28T05:06:55.308Z,1.50
2022-09-28T05:12:07.536Z,1.80
2022-09-28T05:17:16.668Z,1.60
2022-09-28T05:22:29.837Z,1.60
2022-09-28T05:33:18.540Z,1.27
2022-09-28T05:38:34.255Z,1.30
2022-09-28T05:43:46.233Z,1.67
2022-09-28T05:48:53.249Z,2.13
2022-09-28T05:54:05.876Z,1.70
2022-09-28T05:59:18.319Z,1.70
2022-09-28T06:04:34.294Z,1.45
2022-09-28T06:09:41.946Z,1.13
2022-09-28T06:15:14.057Z,1.60
2022-09-28T06:20:31.496Z,2.45
2022-09-28T06:25:53.353Z,1.60
2022-09-28T06:30:57.123Z,1.70
2022-09-28T06:36:12.367Z,1.63
2022-09-28T06:41:24.423Z,1.83
2022-09-28T06:46:31.528Z,1.73
2022-09-28T06:52:05.144Z,1.70
2022-09-28T06:57:50.128Z,1.67
2022-09-28T07:08:50.892Z,1.38
2022-09-28T07:14:37.860Z,1.67
2022-09-28T07:19:51.119Z,1.65
2022-09-28T07:30:52.266Z,1.50
2022-09-28T07:41:34.972Z,1.38
2022-09-28T07:46:55.390Z,1.60
2022-09-28T07:58:04.057Z,1.55
2022-09-28T08:03:35.991Z,1.50
2022-09-28T08:08:58.014Z,1.67
2022-09-28T08:14:29.158Z,1.50
2022-09-28T08:20:19.708Z,2.08
2022-09-28T08:25:33.030Z,1.35
2022-09-28T08:30:54.198Z,1.50
2022-09-28T08:36:38.862Z,1.70
2022-09-28T08:42:31.213Z,1.40
2022-09-28T08:48:56.205Z,1.65
2022-09-28T08:55:19.716Z,1.50
2022-09-28T09:00:54.969Z,1.38
2022-09-28T09:06:56.266Z,1.50
2022-09-28T09:12:50.773Z,1.35
2022-09-28T09:18:43.845Z,1.40
2022-09-28T09:24:34.147Z,1.83
2022-09-28T09:30:20.535Z,1.70
2022-09-28T09:36:16.495Z,1.77
2022-09-28T09:42:11.334Z,1.80
2022-09-28T09:48:21.777Z,2.17
2022-09-28T09:53:58.249Z,1.65
2022-09-28T09:59:36.176Z,1.70
2022-09-28T10:05:30.376Z,1.77
2022-09-28T10:10:55.724Z,2.00
2022-09-28T10:16:13.614Z,1.70
2022-09-28T10:21:43.267Z,1.50
2022-09-28T10:27:22.169Z,1.33
2022-09-28T10:32:43.058Z,1.65
2022-09-28T10:38:06.915Z,1.67
2022-09-28T10:44:12.600Z,1.90
2022-09-28T10:49:53.171Z,1.77
2022-09-28T10:55:33.965Z,1.70
2022-09-28T11:00:49.109Z,1.70
2022-09-28T11:06:00.975Z,1.40
2022-09-28T11:17:45.851Z,1.50
2022-09-28T11:23:05.113Z,1.50
2022-09-28T11:28:37.615Z,1.20
2022-09-28T11:34:18.905Z,1.40
2022-09-28T11:40:23.703Z,1.25
2022-09-28T11:45:58.726Z,1.20
2022-09-28T11:51:24.275Z,1.48
2022-09-28T11:56:42.452Z,1.33
2022-09-28T12:01:58.509Z,1.45
2022-09-28T12:07:38.671Z,1.50
2022-09-28T12:13:02.702Z,1.15
2022-09-28T12:18:52.025Z,1.50
2022-09-28T12:24:12.438Z,1.30
2022-09-28T12:29:26.836Z,1.20
2022-09-28T12:34:36.817Z,1.10
2022-09-28T12:40:05.312Z,1.08
2022-09-28T12:45:25.228Z,1.23
2022-09-28T12:51:26.887Z,1.40
2022-09-28T12:57:10.718Z,0.88
2022-09-28T13:02:53.282Z,1.00
2022-09-28T13:08:34.709Z,1.38
2022-09-28T13:14:16.859Z,1.30
2022-09-28T13:19:32.373Z,1.20
2022-09-28T13:24:47.858Z,1.10
2022-09-28T13:35:18.531Z,1.05
2022-09-28T13:41:07.476Z,1.10
2022-09-28T13:46:54.826Z,1.20
2022-09-28T13:52:38.986Z,1.00
2022-09-28T13:58:24.512Z,1.20
2022-09-28T14:03:57.438Z,1.00
2022-09-28T14:09:46.025Z,1.10
2022-09-28T14:14:56.577Z,1.23
2022-09-28T14:20:28.085Z,1.05
2022-09-28T14:26:01.458Z,0.90
2022-09-28T14:31:25.345Z,1.37
2022-09-28T14:37:06.183Z,1.20
2022-09-28T14:42:16.463Z,1.50
2022-09-28T14:48:20.544Z,1.30
2022-09-28T14:53:37.390Z,1.23
2022-09-28T14:58:57.083Z,1.00
2022-09-28T15:04:13.495Z,1.00
2022-09-28T15:09:54.094Z,1.23
2022-09-28T15:21:09.215Z,1.20
2022-09-28T15:26:39.769Z,1.00
2022-09-28T15:31:48.933Z,0.88
2022-09-28T15:37:18.365Z,0.80
2022-09-28T15:42:31.545Z,0.80
2022-09-28T15:47:36.282Z,0.82
2022-09-28T15:53:12.147Z,1.05
2022-09-28T15:58:22.624Z,0.90
2022-09-28T16:03:38.965Z,1.10
2022-09-28T16:08:51.295Z,0.90
2022-09-28T16:14:22.189Z,1.25
2022-09-28T16:19:40.534Z,1.25
2022-09-28T16:30:39.137Z,1.40
2022-09-28T16:35:49.075Z,1.20
2022-09-28T16:41:05.984Z,1.05
2022-09-28T16:51:37.886Z,1.27
2022-09-28T16:56:54.454Z,1.50
2022-09-28T17:02:01.617Z,1.15
2022-09-28T17:07:13.949Z,0.90
2022-09-28T17:12:30.192Z,1.13
2022-09-28T17:17:41.572Z,0.95
2022-09-28T17:22:56.393Z,1.20
2022-09-28T17:28:03.641Z,0.90
2022-09-28T17:33:08.820Z,1.20
2022-09-28T17:38:28.439Z,1.08
2022-09-28T17:43:35.925Z,0.70
2022-09-28T17:48:51.455Z,0.80
2022-09-28T17:53:57.805Z,1.05
2022-09-28T17:59:31.629Z,0.98
2022-09-28T18:04:52.053Z,0.88
2022-09-28T18:09:59.455Z,0.75
2022-09-28T18:15:08.286Z,1.30
2022-09-28T18:20:14.619Z,0.80
2022-09-28T18:25:19.973Z,0.93
2022-09-28T18:30:30.415Z,1.20
2022-09-28T18:35:46.366Z,0.95
2022-09-28T18:41:01.532Z,1.17
2022-09-28T18:46:10.712Z,1.15
2022-09-28T18:51:21.063Z,1.17
2022-09-28T18:56:28.678Z,1.40
2022-09-28T19:01:34.346Z,1.30
2022-09-28T19:06:47.120Z,0.88
2022-09-28T19:11:53.427Z,1.15
2022-09-28T19:16:57.996Z,0.85
2022-09-28T19:27:50.002Z,1.00
2022-09-28T19:33:08.646Z,1.58
2022-09-28T19:38:17.126Z,1.60
2022-09-28T19:43:24.836Z,1.58
2022-09-28T19:48:33.142Z,1.50
2022-09-28T19:53:40.663Z,1.40
2022-09-28T19:58:47.915Z,1.40
2022-09-28T20:04:20.640Z,1.35
2022-09-28T20:09:29.066Z,1.20
2022-09-28T20:14:41.400Z,1.30
2022-09-28T20:20:01.810Z,1.00
2022-09-28T20:25:11.572Z,0.80
2022-09-28T20:30:22.658Z,1.10
2022-09-28T20:35:33.268Z,1.20
2022-09-28T20:40:41.247Z,1.05
2022-09-28T20:45:48.825Z,1.10
2022-09-28T20:51:19.437Z,0.70
2022-09-28T20:56:50.608Z,0.93
2022-09-28T21:01:56.423Z,0.73
2022-09-28T21:07:11.534Z,1.13
2022-09-28T21:12:18.458Z,0.85
2022-09-28T21:17:33.293Z,0.98
2022-09-28T21:22:40.154Z,0.70
2022-09-28T21:27:46.417Z,0.80
2022-09-28T21:32:56.579Z,1.00
2022-09-28T21:37:58.752Z,0.90
2022-09-28T21:43:02.560Z,1.00
2022-09-28T21:48:11.278Z,1.25
2022-09-28T21:53:15.428Z,1.50
2022-09-28T21:58:25.855Z,1.40
2022-09-28T22:03:36.790Z,1.88
2022-09-28T22:08:50.437Z,1.77
2022-09-28T22:14:04.776Z,1.50
2022-09-28T22:19:12.616Z,1.40
2022-09-28T22:24:15.798Z,1.83
2022-09-28T22:29:23.971Z,1.90
2022-09-28T22:34:33.935Z,1.65
2022-09-28T22:39:44.425Z,1.77
2022-09-28T22:44:52.582Z,1.90
2022-09-28T22:50:01.025Z,1.40
2022-09-28T22:55:12.681Z,2.10
2022-09-28T23:00:23.292Z,1.58
2022-09-28T23:05:29.212Z,2.25
2022-09-28T23:10:35.801Z,1.88
2022-09-28T23:15:44.259Z,1.80
2022-09-28T23:21:09.502Z,1.45
2022-09-28T23:26:26.214Z,1.85
2022-09-28T23:31:33.883Z,1.80
2022-09-28T23:36:46.655Z,1.95
2022-09-28T23:41:50.910Z,1.65
2022-09-28T23:47:02.661Z,1.67
2022-09-28T23:52:12.126Z,2.10
2022-09-28T23:57:16.073Z,1.80
